Accueil
METAR-TAF:

METAR-TAF

Aéroports :

Aéroport international de Yaoundé-Nsimalen

Yaoundé, Cameroun

latitude: 03-50N, longitude: 011-31E, altitude: 751 m

Observation

Le bulletin a été fait il y a 37 minutes, à 16:00 UTC
Vent 3 kt de est, variant entre nord-est et sud
Température 31°C
Humidité 26%
Pression 1014 hPa
Visibilité: 6000 m

METAR: FKYS 241600Z 09003KT 040V170 6000 NSC 31/09 Q1014 NOSIG

Heure: 17:37 (16:37 UTC)

Prévision

Le bulletin a été fait il y a 5 heures et 37 minutes, à 11:00 UTC
Prévision valable du 24 à 12 UTC au 25 à 12 UTC
Vent 6 kt de direction variable
Visibilité: 4000 m
Nuages épars à une hauteur de 1600 ft
brume sèche
Temporairement
du 25 à 02 UTC au 25 à 08 UTC
Visibilité: 2000 m
Nuages fragmentés à une hauteur de 600 ft
brume

TAF: FKYS 241100Z 2412/2512 VRB06KT 4000 HZ SCT016 TEMPO 2502/2508 2000 BR BKN006

Observations et prévisions météorologiques de plus de 4000 aéroports (messages METAR et TAF).

Les stations disponibles sont représentées par des disques jaunes et rouges sur la carte.

Passer la souris dessus pour voir le nom de la station.

Cliquer dessus pour voir les observations et prévisions météorologiques.

Pour changer de carte: cliquez sur les boutons verts avec une croix noire pour zoomer, sur le bouton vert avec un tiret pour effectuer un zoom arrière, ou sur les flèches vertes pour les cartes adjacentes.


METAR-TAF: